sensor_id;sensor_type;location;lat;lon;timestamp;temperature;humidity
38209;DHT22;24016;52.102;11.584;2023-07-13T00:00:17;14.50;99.90
38209;DHT22;24016;52.102;11.584;2023-07-13T00:02:43;14.50;99.90
38209;DHT22;24016;52.102;11.584;2023-07-13T00:05:09;14.50;99.90
38209;DHT22;24016;52.102;11.584;2023-07-13T00:07:35;14.50;99.90
38209;DHT22;24016;52.102;11.584;2023-07-13T00:10:02;14.50;99.90
38209;DHT22;24016;52.102;11.584;2023-07-13T00:12:32;14.50;99.90
38209;DHT22;24016;52.102;11.584;2023-07-13T00:15:00;14.60;99.90
38209;DHT22;24016;52.102;11.584;2023-07-13T00:17:27;14.60;99.90
38209;DHT22;24016;52.102;11.584;2023-07-13T00:19:53;14.60;99.90
38209;DHT22;24016;52.102;11.584;2023-07-13T00:22:20;14.60;99.90
38209;DHT22;24016;52.102;11.584;2023-07-13T00:24:46;14.60;99.90
38209;DHT22;24016;52.102;11.584;2023-07-13T00:27:12;14.50;99.90
38209;DHT22;24016;52.102;11.584;2023-07-13T00:29:37;14.50;99.90
38209;DHT22;24016;52.102;11.584;2023-07-13T00:32:04;14.50;99.90
38209;DHT22;24016;52.102;11.584;2023-07-13T00:34:30;14.50;99.90
38209;DHT22;24016;52.102;11.584;2023-07-13T00:36:56;14.50;99.90
38209;DHT22;24016;52.102;11.584;2023-07-13T00:39:21;14.50;99.90
38209;DHT22;24016;52.102;11.584;2023-07-13T00:41:48;14.40;99.90
38209;DHT22;24016;52.102;11.584;2023-07-13T00:44:14;14.40;99.90
38209;DHT22;24016;52.102;11.584;2023-07-13T00:46:41;14.40;99.90
38209;DHT22;24016;52.102;11.584;2023-07-13T00:49:09;14.40;99.90
38209;DHT22;24016;52.102;11.584;2023-07-13T00:51:49;14.40;99.90
38209;DHT22;24016;52.102;11.584;2023-07-13T00:54:23;14.40;99.90
38209;DHT22;24016;52.102;11.584;2023-07-13T00:56:52;14.40;99.90
38209;DHT22;24016;52.102;11.584;2023-07-13T00:59:19;14.40;99.90
38209;DHT22;24016;52.102;11.584;2023-07-13T01:01:45;14.40;99.90
38209;DHT22;24016;52.102;11.584;2023-07-13T01:04:11;14.30;99.90
38209;DHT22;24016;52.102;11.584;2023-07-13T01:06:37;14.30;99.90
38209;DHT22;24016;52.102;11.584;2023-07-13T01:09:04;14.30;99.90
38209;DHT22;24016;52.102;11.584;2023-07-13T01:11:31;14.30;99.90
38209;DHT22;24016;52.102;11.584;2023-07-13T01:13:57;14.30;99.90
38209;DHT22;24016;52.102;11.584;2023-07-13T01:16:27;14.30;99.90
38209;DHT22;24016;52.102;11.584;2023-07-13T01:18:54;14.30;99.90
38209;DHT22;24016;52.102;11.584;2023-07-13T01:21:20;14.30;99.90
38209;DHT22;24016;52.102;11.584;2023-07-13T01:23:46;14.30;99.90
38209;DHT22;24016;52.102;11.584;2023-07-13T01:26:11;14.30;99.90
38209;DHT22;24016;52.102;11.584;2023-07-13T01:28:37;14.30;99.90
38209;DHT22;24016;52.102;11.584;2023-07-13T01:33:40;14.30;99.90
38209;DHT22;24016;52.102;11.584;2023-07-13T01:36:08;14.20;99.90
38209;DHT22;24016;52.102;11.584;2023-07-13T01:38:35;14.20;99.90
38209;DHT22;24016;52.102;11.584;2023-07-13T01:41:01;14.20;99.90
38209;DHT22;24016;52.102;11.584;2023-07-13T01:43:26;14.20;99.90
38209;DHT22;24016;52.102;11.584;2023-07-13T01:45:52;14.20;99.90
38209;DHT22;24016;52.102;11.584;2023-07-13T01:48:18;14.30;99.90
38209;DHT22;24016;52.102;11.584;2023-07-13T01:50:43;14.30;99.90
38209;DHT22;24016;52.102;11.584;2023-07-13T01:53:09;14.30;99.90
38209;DHT22;24016;52.102;11.584;2023-07-13T01:55:35;14.30;99.90
38209;DHT22;24016;52.102;11.584;2023-07-13T01:58:01;14.30;99.90
38209;DHT22;24016;52.102;11.584;2023-07-13T02:00:27;14.30;99.90
38209;DHT22;24016;52.102;11.584;2023-07-13T02:02:53;14.30;99.90
38209;DHT22;24016;52.102;11.584;2023-07-13T02:05:19;14.30;99.90
38209;DHT22;24016;52.102;11.584;2023-07-13T02:07:45;14.30;99.90
38209;DHT22;24016;52.102;11.584;2023-07-13T02:10:11;14.40;99.90
38209;DHT22;24016;52.102;11.584;2023-07-13T02:12:37;14.50;99.90
38209;DHT22;24016;52.102;11.584;2023-07-13T02:15:03;14.60;99.90
38209;DHT22;24016;52.102;11.584;2023-07-13T02:17:29;14.70;99.90
38209;DHT22;24016;52.102;11.584;2023-07-13T02:19:55;14.70;99.90
38209;DHT22;24016;52.102;11.584;2023-07-13T02:22:21;14.70;99.90
38209;DHT22;24016;52.102;11.584;2023-07-13T02:24:47;14.70;99.90
38209;DHT22;24016;52.102;11.584;2023-07-13T02:27:14;14.70;99.90
38209;DHT22;24016;52.102;11.584;2023-07-13T02:29:43;14.70;99.90
38209;DHT22;24016;52.102;11.584;2023-07-13T02:32:08;14.70;99.90
38209;DHT22;24016;52.102;11.584;2023-07-13T02:34:34;14.70;99.90
38209;DHT22;24016;52.102;11.584;2023-07-13T02:37:00;14.60;99.90
38209;DHT22;24016;52.102;11.584;2023-07-13T02:39:25;14.60;99.90
38209;DHT22;24016;52.102;11.584;2023-07-13T02:41:51;14.50;99.90
38209;DHT22;24016;52.102;11.584;2023-07-13T02:44:16;14.50;99.90
38209;DHT22;24016;52.102;11.584;2023-07-13T02:46:42;14.40;99.90
38209;DHT22;24016;52.102;11.584;2023-07-13T02:49:08;14.30;99.90
38209;DHT22;24016;52.102;11.584;2023-07-13T02:51:33;14.30;99.90
38209;DHT22;24016;52.102;11.584;2023-07-13T02:54:00;14.30;99.90
38209;DHT22;24016;52.102;11.584;2023-07-13T02:56:27;14.30;99.90
38209;DHT22;24016;52.102;11.584;2023-07-13T02:58:54;14.30;99.90
38209;DHT22;24016;52.102;11.584;2023-07-13T03:01:21;14.30;99.90
38209;DHT22;24016;52.102;11.584;2023-07-13T03:03:51;14.30;99.90
38209;DHT22;24016;52.102;11.584;2023-07-13T03:06:17;14.20;99.90
38209;DHT22;24016;52.102;11.584;2023-07-13T03:08:44;14.20;99.90
38209;DHT22;24016;52.102;11.584;2023-07-13T03:11:13;14.10;99.90
38209;DHT22;24016;52.102;11.584;2023-07-13T03:13:40;14.10;99.90
38209;DHT22;24016;52.102;11.584;2023-07-13T03:16:06;14.10;99.90
38209;DHT22;24016;52.102;11.584;2023-07-13T03:18:32;14.10;99.90
38209;DHT22;24016;52.102;11.584;2023-07-13T03:20:58;14.20;99.90
38209;DHT22;24016;52.102;11.584;2023-07-13T03:23:24;14.10;99.90
38209;DHT22;24016;52.102;11.584;2023-07-13T03:26:02;14.10;99.90
38209;DHT22;24016;52.102;11.584;2023-07-13T03:28:33;14.10;99.90
38209;DHT22;24016;52.102;11.584;2023-07-13T03:31:04;14.10;99.90
38209;DHT22;24016;52.102;11.584;2023-07-13T03:33:30;14.20;99.90
38209;DHT22;24016;52.102;11.584;2023-07-13T03:35:56;14.20;99.90
38209;DHT22;24016;52.102;11.584;2023-07-13T03:38:22;14.30;99.90
38209;DHT22;24016;52.102;11.584;2023-07-13T03:40:47;14.30;99.90
38209;DHT22;24016;52.102;11.584;2023-07-13T03:43:13;14.30;99.90
38209;DHT22;24016;52.102;11.584;2023-07-13T03:45:40;14.40;99.90
38209;DHT22;24016;52.102;11.584;2023-07-13T03:48:05;14.30;99.90
38209;DHT22;24016;52.102;11.584;2023-07-13T03:50:31;14.30;99.90
38209;DHT22;24016;52.102;11.584;2023-07-13T03:53:00;14.40;99.90
38209;DHT22;24016;52.102;11.584;2023-07-13T03:55:26;14.40;99.90
38209;DHT22;24016;52.102;11.584;2023-07-13T03:57:59;14.30;99.90
38209;DHT22;24016;52.102;11.584;2023-07-13T04:00:26;14.40;99.90
38209;DHT22;24016;52.102;11.584;2023-07-13T04:02:52;14.40;99.90
38209;DHT22;24016;52.102;11.584;2023-07-13T04:05:17;14.50;99.90
38209;DHT22;24016;52.102;11.584;2023-07-13T04:07:43;14.60;99.90
38209;DHT22;24016;52.102;11.584;2023-07-13T04:10:09;14.70;99.90
38209;DHT22;24016;52.102;11.584;2023-07-13T04:12:35;14.90;99.90
38209;DHT22;24016;52.102;11.584;2023-07-13T04:15:00;15.10;99.90
38209;DHT22;24016;52.102;11.584;2023-07-13T04:17:26;15.20;99.90
38209;DHT22;24016;52.102;11.584;2023-07-13T04:19:52;15.40;99.90
38209;DHT22;24016;52.102;11.584;2023-07-13T04:22:18;15.60;99.90
38209;DHT22;24016;52.102;11.584;2023-07-13T04:24:43;15.80;99.90
38209;DHT22;24016;52.102;11.584;2023-07-13T04:27:09;15.90;99.90
38209;DHT22;24016;52.102;11.584;2023-07-13T04:29:34;16.00;99.90
38209;DHT22;24016;52.102;11.584;2023-07-13T04:32:00;16.10;99.90
38209;DHT22;24016;52.102;11.584;2023-07-13T04:34:26;16.10;99.90
38209;DHT22;24016;52.102;11.584;2023-07-13T04:36:52;16.20;99.90
38209;DHT22;24016;52.102;11.584;2023-07-13T04:39:19;16.10;99.90
38209;DHT22;24016;52.102;11.584;2023-07-13T04:41:46;16.20;99.90
38209;DHT22;24016;52.102;11.584;2023-07-13T04:44:11;16.30;99.90
38209;DHT22;24016;52.102;11.584;2023-07-13T04:46:38;16.30;99.90
38209;DHT22;24016;52.102;11.584;2023-07-13T04:49:04;16.40;99.90
38209;DHT22;24016;52.102;11.584;2023-07-13T04:51:30;16.40;99.90
38209;DHT22;24016;52.102;11.584;2023-07-13T04:53:55;16.40;99.90
38209;DHT22;24016;52.102;11.584;2023-07-13T04:56:22;16.40;99.90
38209;DHT22;24016;52.102;11.584;2023-07-13T04:58:47;16.40;99.90
38209;DHT22;24016;52.102;11.584;2023-07-13T05:01:14;16.50;99.90
38209;DHT22;24016;52.102;11.584;2023-07-13T05:03:39;16.50;99.90
38209;DHT22;24016;52.102;11.584;2023-07-13T05:06:08;16.50;99.90
38209;DHT22;24016;52.102;11.584;2023-07-13T05:08:36;16.60;99.90
38209;DHT22;24016;52.102;11.584;2023-07-13T05:11:05;16.50;99.90
38209;DHT22;24016;52.102;11.584;2023-07-13T05:13:31;16.50;99.90
38209;DHT22;24016;52.102;11.584;2023-07-13T05:16:02;16.50;99.90
38209;DHT22;24016;52.102;11.584;2023-07-13T05:18:30;16.50;99.90
38209;DHT22;24016;52.102;11.584;2023-07-13T05:21:06;16.50;99.90
38209;DHT22;24016;52.102;11.584;2023-07-13T05:23:34;16.50;99.90
38209;DHT22;24016;52.102;11.584;2023-07-13T05:26:02;16.60;99.90
38209;DHT22;24016;52.102;11.584;2023-07-13T05:28:30;16.80;99.90
38209;DHT22;24016;52.102;11.584;2023-07-13T05:30:57;16.80;99.90
38209;DHT22;24016;52.102;11.584;2023-07-13T05:33:23;16.90;99.90
38209;DHT22;24016;52.102;11.584;2023-07-13T05:35:50;17.00;99.90
38209;DHT22;24016;52.102;11.584;2023-07-13T05:38:17;17.10;99.90
38209;DHT22;24016;52.102;11.584;2023-07-13T05:40:46;17.20;99.90
38209;DHT22;24016;52.102;11.584;2023-07-13T05:43:14;17.30;99.90
38209;DHT22;24016;52.102;11.584;2023-07-13T05:45:39;17.30;99.90
38209;DHT22;24016;52.102;11.584;2023-07-13T05:48:09;17.50;99.90
38209;DHT22;24016;52.102;11.584;2023-07-13T05:50:34;17.60;99.90
38209;DHT22;24016;52.102;11.584;2023-07-13T05:53:00;17.70;99.90
38209;DHT22;24016;52.102;11.584;2023-07-13T05:55:25;17.80;99.90
38209;DHT22;24016;52.102;11.584;2023-07-13T05:57:51;17.90;99.90
38209;DHT22;24016;52.102;11.584;2023-07-13T06:00:17;17.90;99.90
38209;DHT22;24016;52.102;11.584;2023-07-13T06:02:42;18.10;99.90
38209;DHT22;24016;52.102;11.584;2023-07-13T06:05:09;18.20;99.90
38209;DHT22;24016;52.102;11.584;2023-07-13T06:07:36;18.10;99.90
38209;DHT22;24016;52.102;11.584;2023-07-13T06:10:02;18.20;99.90
38209;DHT22;24016;52.102;11.584;2023-07-13T06:12:30;18.30;99.90
38209;DHT22;24016;52.102;11.584;2023-07-13T06:14:55;18.30;99.90
38209;DHT22;24016;52.102;11.584;2023-07-13T06:17:21;18.20;99.90
38209;DHT22;24016;52.102;11.584;2023-07-13T06:19:50;18.20;99.90
38209;DHT22;24016;52.102;11.584;2023-07-13T06:22:16;18.20;99.90
38209;DHT22;24016;52.102;11.584;2023-07-13T06:24:41;18.40;99.90
38209;DHT22;24016;52.102;11.584;2023-07-13T06:27:07;18.60;99.90
38209;DHT22;24016;52.102;11.584;2023-07-13T06:29:36;18.60;99.90
38209;DHT22;24016;52.102;11.584;2023-07-13T06:32:05;18.80;99.90
38209;DHT22;24016;52.102;11.584;2023-07-13T06:34:30;18.90;99.90
38209;DHT22;24016;52.102;11.584;2023-07-13T06:36:56;18.80;99.90
38209;DHT22;24016;52.102;11.584;2023-07-13T06:39:22;18.60;99.90
38209;DHT22;24016;52.102;11.584;2023-07-13T06:41:47;18.50;99.90
38209;DHT22;24016;52.102;11.584;2023-07-13T06:44:16;18.50;99.90
38209;DHT22;24016;52.102;11.584;2023-07-13T06:46:41;18.50;99.90
38209;DHT22;24016;52.102;11.584;2023-07-13T06:49:08;18.50;99.90
38209;DHT22;24016;52.102;11.584;2023-07-13T06:51:34;18.50;99.90
38209;DHT22;24016;52.102;11.584;2023-07-13T06:54:00;18.60;99.90
38209;DHT22;24016;52.102;11.584;2023-07-13T06:56:26;18.60;99.90
38209;DHT22;24016;52.102;11.584;2023-07-13T06:58:54;18.80;99.90
38209;DHT22;24016;52.102;11.584;2023-07-13T07:01:20;18.90;99.90
38209;DHT22;24016;52.102;11.584;2023-07-13T07:03:45;19.10;99.90
38209;DHT22;24016;52.102;11.584;2023-07-13T07:06:16;19.10;99.90
38209;DHT22;24016;52.102;11.584;2023-07-13T07:08:44;19.30;99.90
38209;DHT22;24016;52.102;11.584;2023-07-13T07:11:14;19.30;99.90
38209;DHT22;24016;52.102;11.584;2023-07-13T07:13:40;19.50;99.90
38209;DHT22;24016;52.102;11.584;2023-07-13T07:16:06;19.50;99.90
38209;DHT22;24016;52.102;11.584;2023-07-13T07:18:32;19.60;99.90
38209;DHT22;24016;52.102;11.584;2023-07-13T07:20:57;19.70;99.90
38209;DHT22;24016;52.102;11.584;2023-07-13T07:23:23;19.70;99.90
38209;DHT22;24016;52.102;11.584;2023-07-13T07:25:49;19.80;99.90
38209;DHT22;24016;52.102;11.584;2023-07-13T07:28:16;19.90;99.90
38209;DHT22;24016;52.102;11.584;2023-07-13T07:30:44;20.00;99.90
38209;DHT22;24016;52.102;11.584;2023-07-13T07:33:11;20.00;99.90
38209;DHT22;24016;52.102;11.584;2023-07-13T07:35:40;20.10;99.90
38209;DHT22;24016;52.102;11.584;2023-07-13T07:38:05;20.10;99.90
38209;DHT22;24016;52.102;11.584;2023-07-13T07:40:31;20.20;99.90
38209;DHT22;24016;52.102;11.584;2023-07-13T07:42:57;20.30;99.90
38209;DHT22;24016;52.102;11.584;2023-07-13T07:45:23;20.30;99.90
38209;DHT22;24016;52.102;11.584;2023-07-13T07:47:49;20.50;99.90
38209;DHT22;24016;52.102;11.584;2023-07-13T07:50:15;20.70;99.90
38209;DHT22;24016;52.102;11.584;2023-07-13T07:52:40;20.90;99.90
38209;DHT22;24016;52.102;11.584;2023-07-13T07:55:07;20.90;99.90
38209;DHT22;24016;52.102;11.584;2023-07-13T07:57:33;20.90;99.90
38209;DHT22;24016;52.102;11.584;2023-07-13T07:59:59;21.10;99.90
38209;DHT22;24016;52.102;11.584;2023-07-13T08:02:25;21.40;99.90
38209;DHT22;24016;52.102;11.584;2023-07-13T08:04:51;21.50;99.90
38209;DHT22;24016;52.102;11.584;2023-07-13T08:07:17;21.80;99.90
38209;DHT22;24016;52.102;11.584;2023-07-13T08:09:43;22.30;99.90
38209;DHT22;24016;52.102;11.584;2023-07-13T08:12:09;22.90;99.90
38209;DHT22;24016;52.102;11.584;2023-07-13T08:14:35;23.20;99.90
38209;DHT22;24016;52.102;11.584;2023-07-13T08:17:00;23.70;99.90
38209;DHT22;24016;52.102;11.584;2023-07-13T08:19:26;24.20;99.90
38209;DHT22;24016;52.102;11.584;2023-07-13T08:21:52;23.90;99.90
38209;DHT22;24016;52.102;11.584;2023-07-13T08:24:18;23.80;99.90
38209;DHT22;24016;52.102;11.584;2023-07-13T08:26:46;24.20;99.90
38209;DHT22;24016;52.102;11.584;2023-07-13T08:29:13;24.30;99.90
38209;DHT22;24016;52.102;11.584;2023-07-13T08:31:39;24.10;99.90
38209;DHT22;24016;52.102;11.584;2023-07-13T08:34:04;24.00;99.90
38209;DHT22;24016;52.102;11.584;2023-07-13T08:36:32;24.20;99.90
38209;DHT22;24016;52.102;11.584;2023-07-13T08:39:05;24.90;99.90
38209;DHT22;24016;52.102;11.584;2023-07-13T08:41:33;25.30;98.80
38209;DHT22;24016;52.102;11.584;2023-07-13T08:44:01;24.90;97.90
38209;DHT22;24016;52.102;11.584;2023-07-13T08:46:35;24.20;98.10
38209;DHT22;24016;52.102;11.584;2023-07-13T08:49:11;23.90;98.80
38209;DHT22;24016;52.102;11.584;2023-07-13T08:51:53;24.20;97.90
38209;DHT22;24016;52.102;11.584;2023-07-13T08:54:34;25.30;98.00
38209;DHT22;24016;52.102;11.584;2023-07-13T08:57:09;26.50;95.90
38209;DHT22;24016;52.102;11.584;2023-07-13T08:59:35;27.10;95.10
38209;DHT22;24016;52.102;11.584;2023-07-13T09:04:54;27.00;94.50
38209;DHT22;24016;52.102;11.584;2023-07-13T09:07:41;26.00;94.90
38209;DHT22;24016;52.102;11.584;2023-07-13T09:10:46;24.80;95.70
38209;DHT22;24016;52.102;11.584;2023-07-13T09:13:48;23.80;95.60
38209;DHT22;24016;52.102;11.584;2023-07-13T09:16:19;24.00;95.90
38209;DHT22;24016;52.102;11.584;2023-07-13T09:18:49;25.00;95.90
38209;DHT22;24016;52.102;11.584;2023-07-13T09:21:31;26.00;94.50
38209;DHT22;24016;52.102;11.584;2023-07-13T09:26:47;27.20;93.80
38209;DHT22;24016;52.102;11.584;2023-07-13T09:29:26;27.20;92.60
38209;DHT22;24016;52.102;11.584;2023-07-13T09:31:57;27.10;93.10
38209;DHT22;24016;52.102;11.584;2023-07-13T09:34:25;27.30;92.80
38209;DHT22;24016;52.102;11.584;2023-07-13T09:36:51;26.50;92.20
38209;DHT22;24016;52.102;11.584;2023-07-13T09:39:35;26.30;93.30
38209;DHT22;24016;52.102;11.584;2023-07-13T09:42:19;26.30;92.80
38209;DHT22;24016;52.102;11.584;2023-07-13T09:45:00;25.50;93.80
38209;DHT22;24016;52.102;11.584;2023-07-13T09:47:38;24.60;94.80
38209;DHT22;24016;52.102;11.584;2023-07-13T09:50:09;23.80;95.80
38209;DHT22;24016;52.102;11.584;2023-07-13T09:52:49;23.50;96.10
38209;DHT22;24016;52.102;11.584;2023-07-13T09:55:27;23.80;95.80
38209;DHT22;24016;52.102;11.584;2023-07-13T09:58:02;24.60;94.20
38209;DHT22;24016;52.102;11.584;2023-07-13T10:00:31;24.90;94.50
38209;DHT22;24016;52.102;11.584;2023-07-13T10:03:14;25.00;93.80
38209;DHT22;24016;52.102;11.584;2023-07-13T10:05:43;25.20;94.30
38209;DHT22;24016;52.102;11.584;2023-07-13T10:08:18;25.00;94.20
38209;DHT22;24016;52.102;11.584;2023-07-13T10:10:57;24.80;94.20
38209;DHT22;24016;52.102;11.584;2023-07-13T10:13:30;24.60;94.40
38209;DHT22;24016;52.102;11.584;2023-07-13T10:15:58;24.30;94.20
38209;DHT22;24016;52.102;11.584;2023-07-13T10:18:25;24.90;94.80
38209;DHT22;24016;52.102;11.584;2023-07-13T10:21:11;25.70;94.20
38209;DHT22;24016;52.102;11.584;2023-07-13T10:23:42;26.40;92.20
38209;DHT22;24016;52.102;11.584;2023-07-13T10:26:27;26.20;92.50
38209;DHT22;24016;52.102;11.584;2023-07-13T10:29:00;26.20;92.80
38209;DHT22;24016;52.102;11.584;2023-07-13T10:31:50;26.60;93.30
38209;DHT22;24016;52.102;11.584;2023-07-13T10:34:19;27.40;92.80
38209;DHT22;24016;52.102;11.584;2023-07-13T10:36:48;27.80;91.40
38209;DHT22;24016;52.102;11.584;2023-07-13T10:39:27;27.50;91.40
38209;DHT22;24016;52.102;11.584;2023-07-13T10:42:04;27.70;92.30
38209;DHT22;24016;52.102;11.584;2023-07-13T10:44:33;27.40;91.50
38209;DHT22;24016;52.102;11.584;2023-07-13T10:47:07;27.40;91.50
38209;DHT22;24016;52.102;11.584;2023-07-13T10:49:37;27.50;92.80
38209;DHT22;24016;52.102;11.584;2023-07-13T10:58:24;27.60;91.20
38209;DHT22;24016;52.102;11.584;2023-07-13T11:04:00;28.10;90.50
38209;DHT22;24016;52.102;11.584;2023-07-13T11:08:59;27.90;91.60
38209;DHT22;24016;52.102;11.584;2023-07-13T11:14:02;27.20;90.00
38209;DHT22;24016;52.102;11.584;2023-07-13T11:19:54;28.40;89.70
38209;DHT22;24016;52.102;11.584;2023-07-13T11:22:45;27.30;88.70
38209;DHT22;24016;52.102;11.584;2023-07-13T11:25:31;27.20;88.60
38209;DHT22;24016;52.102;11.584;2023-07-13T11:31:01;27.40;89.10
38209;DHT22;24016;52.102;11.584;2023-07-13T11:36:16;25.80;91.60
38209;DHT22;24016;52.102;11.584;2023-07-13T11:39:05;26.20;91.40
38209;DHT22;24016;52.102;11.584;2023-07-13T11:41:54;26.80;92.00
38209;DHT22;24016;52.102;11.584;2023-07-13T11:44:24;27.40;90.20
38209;DHT22;24016;52.102;11.584;2023-07-13T11:46:52;27.40;90.70
38209;DHT22;24016;52.102;11.584;2023-07-13T11:49:20;27.40;90.30
38209;DHT22;24016;52.102;11.584;2023-07-13T11:51:48;28.40;89.10
38209;DHT22;24016;52.102;11.584;2023-07-13T11:54:30;28.90;88.90
38209;DHT22;24016;52.102;11.584;2023-07-13T11:56:58;29.40;87.30
38209;DHT22;24016;52.102;11.584;2023-07-13T11:59:27;29.00;86.70
38209;DHT22;24016;52.102;11.584;2023-07-13T12:01:57;27.90;86.70
38209;DHT22;24016;52.102;11.584;2023-07-13T12:04:35;27.60;87.90
38209;DHT22;24016;52.102;11.584;2023-07-13T12:07:15;27.50;88.90
38209;DHT22;24016;52.102;11.584;2023-07-13T12:09:42;27.60;89.30
38209;DHT22;24016;52.102;11.584;2023-07-13T12:12:15;27.30;89.20
38209;DHT22;24016;52.102;11.584;2023-07-13T12:14:52;27.90;88.10
38209;DHT22;24016;52.102;11.584;2023-07-13T12:17:36;28.80;86.70
38209;DHT22;24016;52.102;11.584;2023-07-13T12:20:11;29.40;85.10
38209;DHT22;24016;52.102;11.584;2023-07-13T12:22:47;29.00;84.80
38209;DHT22;24016;52.102;11.584;2023-07-13T12:25:17;27.80;85.80
38209;DHT22;24016;52.102;11.584;2023-07-13T12:27:50;26.80;88.00
38209;DHT22;24016;52.102;11.584;2023-07-13T12:30:36;26.80;87.90
38209;DHT22;24016;52.102;11.584;2023-07-13T12:33:11;27.70;89.90
38209;DHT22;24016;52.102;11.584;2023-07-13T12:35:44;29.00;87.40
38209;DHT22;24016;52.102;11.584;2023-07-13T12:38:17;29.70;85.20
38209;DHT22;24016;52.102;11.584;2023-07-13T12:40:49;29.80;85.30
38209;DHT22;24016;52.102;11.584;2023-07-13T12:43:21;29.90;83.40
38209;DHT22;24016;52.102;11.584;2023-07-13T12:46:04;30.50;82.80
38209;DHT22;24016;52.102;11.584;2023-07-13T12:48:43;30.40;81.20
38209;DHT22;24016;52.102;11.584;2023-07-13T12:51:12;30.70;81.20
38209;DHT22;24016;52.102;11.584;2023-07-13T12:53:41;31.00;82.30
38209;DHT22;24016;52.102;11.584;2023-07-13T12:56:24;31.30;80.80
38209;DHT22;24016;52.102;11.584;2023-07-13T12:58:58;30.70;80.30
38209;DHT22;24016;52.102;11.584;2023-07-13T13:01:27;30.50;80.50
38209;DHT22;24016;52.102;11.584;2023-07-13T13:03:54;30.30;81.30
38209;DHT22;24016;52.102;11.584;2023-07-13T13:06:28;29.40;81.10
38209;DHT22;24016;52.102;11.584;2023-07-13T13:08:57;29.30;81.80
38209;DHT22;24016;52.102;11.584;2023-07-13T13:11:31;29.80;82.00
38209;DHT22;24016;52.102;11.584;2023-07-13T13:13:57;30.70;81.30
38209;DHT22;24016;52.102;11.584;2023-07-13T13:16:34;30.40;79.00
38209;DHT22;24016;52.102;11.584;2023-07-13T13:19:21;30.30;80.60
38209;DHT22;24016;52.102;11.584;2023-07-13T13:21:50;30.50;78.50
38209;DHT22;24016;52.102;11.584;2023-07-13T13:24:23;31.10;78.30
38209;DHT22;24016;52.102;11.584;2023-07-13T13:26:50;31.00;77.30
38209;DHT22;24016;52.102;11.584;2023-07-13T13:29:22;31.10;76.40
38209;DHT22;24016;52.102;11.584;2023-07-13T13:31:53;31.70;77.80
38209;DHT22;24016;52.102;11.584;2023-07-13T13:34:21;31.60;76.00
38209;DHT22;24016;52.102;11.584;2023-07-13T13:36:49;32.00;76.90
38209;DHT22;24016;52.102;11.584;2023-07-13T13:39:29;32.40;75.20
38209;DHT22;24016;52.102;11.584;2023-07-13T13:41:56;31.60;75.70
38209;DHT22;24016;52.102;11.584;2023-07-13T13:44:23;30.60;76.70
38209;DHT22;24016;52.102;11.584;2023-07-13T13:46:52;29.70;79.00
38209;DHT22;24016;52.102;11.584;2023-07-13T13:49:22;29.20;77.20
38209;DHT22;24016;52.102;11.584;2023-07-13T13:51:50;28.90;76.40
38209;DHT22;24016;52.102;11.584;2023-07-13T13:54:18;28.90;77.30
38209;DHT22;24016;52.102;11.584;2023-07-13T13:56:45;29.00;75.90
38209;DHT22;24016;52.102;11.584;2023-07-13T13:59:11;29.00;76.00
38209;DHT22;24016;52.102;11.584;2023-07-13T14:01:38;28.40;77.80
38209;DHT22;24016;52.102;11.584;2023-07-13T14:04:04;28.70;80.00
38209;DHT22;24016;52.102;11.584;2023-07-13T14:06:32;29.90;79.30
38209;DHT22;24016;52.102;11.584;2023-07-13T14:08:59;30.50;77.00
38209;DHT22;24016;52.102;11.584;2023-07-13T14:11:26;30.80;75.50
38209;DHT22;24016;52.102;11.584;2023-07-13T14:13:59;30.00;75.30
38209;DHT22;24016;52.102;11.584;2023-07-13T14:16:29;29.10;77.40
38209;DHT22;24016;52.102;11.584;2023-07-13T14:18:55;28.80;77.10
38209;DHT22;24016;52.102;11.584;2023-07-13T14:21:25;28.00;77.00
38209;DHT22;24016;52.102;11.584;2023-07-13T14:23:50;27.70;79.00
38209;DHT22;24016;52.102;11.584;2023-07-13T14:26:20;28.20;78.20
38209;DHT22;24016;52.102;11.584;2023-07-13T14:28:49;27.50;76.90
38209;DHT22;24016;52.102;11.584;2023-07-13T14:31:17;27.10;80.50
38209;DHT22;24016;52.102;11.584;2023-07-13T14:33:44;27.00;79.00
38209;DHT22;24016;52.102;11.584;2023-07-13T14:36:47;27.30;78.80
38209;DHT22;24016;52.102;11.584;2023-07-13T14:39:20;27.30;79.40
38209;DHT22;24016;52.102;11.584;2023-07-13T14:41:54;27.10;81.30
38209;DHT22;24016;52.102;11.584;2023-07-13T14:44:31;26.70;80.30
38209;DHT22;24016;52.102;11.584;2023-07-13T14:46:59;26.30;81.10
38209;DHT22;24016;52.102;11.584;2023-07-13T14:49:34;25.80;81.90
38209;DHT22;24016;52.102;11.584;2023-07-13T14:52:22;25.50;84.50
38209;DHT22;24016;52.102;11.584;2023-07-13T14:54:49;25.90;84.50
38209;DHT22;24016;52.102;11.584;2023-07-13T14:57:16;26.30;82.80
38209;DHT22;24016;52.102;11.584;2023-07-13T14:59:42;26.70;81.80
38209;DHT22;24016;52.102;11.584;2023-07-13T15:04:48;26.30;82.70
38209;DHT22;24016;52.102;11.584;2023-07-13T15:07:13;26.40;83.20
38209;DHT22;24016;52.102;11.584;2023-07-13T15:09:42;26.50;83.90
38209;DHT22;24016;52.102;11.584;2023-07-13T15:12:09;26.70;83.50
38209;DHT22;24016;52.102;11.584;2023-07-13T15:14:35;26.50;84.20
38209;DHT22;24016;52.102;11.584;2023-07-13T15:17:02;26.20;83.80
38209;DHT22;24016;52.102;11.584;2023-07-13T15:19:28;25.90;83.20
38209;DHT22;24016;52.102;11.584;2023-07-13T15:21:57;25.60;83.30
38209;DHT22;24016;52.102;11.584;2023-07-13T15:24:24;25.30;84.70
38209;DHT22;24016;52.102;11.584;2023-07-13T15:26:50;25.30;84.60
38209;DHT22;24016;52.102;11.584;2023-07-13T15:29:17;25.30;84.50
38209;DHT22;24016;52.102;11.584;2023-07-13T15:31:43;25.10;85.40
38209;DHT22;24016;52.102;11.584;2023-07-13T15:34:18;25.00;86.70
38209;DHT22;24016;52.102;11.584;2023-07-13T15:36:46;25.10;87.50
38209;DHT22;24016;52.102;11.584;2023-07-13T15:39:16;25.10;86.60
38209;DHT22;24016;52.102;11.584;2023-07-13T15:41:48;24.90;85.80
38209;DHT22;24016;52.102;11.584;2023-07-13T15:44:28;24.60;87.10
38209;DHT22;24016;52.102;11.584;2023-07-13T15:46:54;24.40;87.30
38209;DHT22;24016;52.102;11.584;2023-07-13T15:49:20;24.10;88.50
38209;DHT22;24016;52.102;11.584;2023-07-13T15:51:47;23.70;91.10
38209;DHT22;24016;52.102;11.584;2023-07-13T15:54:16;22.90;92.70
38209;DHT22;24016;52.102;11.584;2023-07-13T15:56:42;22.20;93.90
38209;DHT22;24016;52.102;11.584;2023-07-13T15:59:39;21.80;94.80
38209;DHT22;24016;52.102;11.584;2023-07-13T16:02:18;21.30;95.50